SBRJ/SDU METAR and TAF weather

Enter ICAO airport designator
Station Type Date Time Source
SBRJ METAR 2022/05/26 02:00 UTC NOAA

SBRJ 260200Z 02001KT CAVOK 22/18 Q1023


Station Type Date Time Source
SBRJ Decoded METAR 2022/05/26 02:00 UTC NOAA

Rio De Janeiro Aeroporto , Brazil (SBRJ) 22-54S 043-10W
May 25, 2022 - 10:00 PM EDT / 2022.05.26 0200 UTC
Wind: from the NNE (020 degrees) at 1 MPH (1 KT):0
Visibility: greater than 7 mile(s):0
Temperature: 71 F (22 C)
Dew Point: 64 F (18 C)
Relative Humidity: 78%
Pressure (altimeter): 30.21 in. Hg (1023 hPa)
ob: SBRJ 260200Z 02001KT CAVOK 22/18 Q1023
cycle: 2

Station Type Date Time Source
SBRJ TAF 2022/05/26 06:06 UTC NOAA

TAF SBRJ 260303Z 2606/2618 36006KT CAVOK TN20/2609Z TX27/2617Z PROB30 2608/2610 5000 BR NSC
TEMPO 2616/2618 17012KT SCT025
RMK PGX

Example: see airport list